createdAt,value
2022-08-03T00:01:49.852Z,4.45
2022-08-03T00:04:16.688Z,7.47
2022-08-03T00:06:43.457Z,7.88
2022-08-03T00:09:10.453Z,3.17
2022-08-03T00:11:37.305Z,6.13
2022-08-03T00:14:06.101Z,5.82
2022-08-03T00:16:33.111Z,6.00
2022-08-03T00:19:00.778Z,6.53
2022-08-03T00:21:28.380Z,5.20
2022-08-03T00:23:56.575Z,7.97
2022-08-03T00:26:23.327Z,9.07
2022-08-03T00:28:50.276Z,4.95
2022-08-03T00:31:22.278Z,7.68
2022-08-03T00:34:04.399Z,9.63
2022-08-03T00:36:31.153Z,7.15
2022-08-03T00:38:57.889Z,6.38
2022-08-03T00:41:24.614Z,6.95
2022-08-03T00:43:51.442Z,7.97
2022-08-03T00:46:21.645Z,11.40
2022-08-03T00:48:52.344Z,5.90
2022-08-03T00:51:21.113Z,9.95
2022-08-03T00:53:48.041Z,5.35
2022-08-03T00:56:16.333Z,8.38
2022-08-03T00:58:45.441Z,6.93
2022-08-03T01:01:12.594Z,7.93
2022-08-03T01:03:39.631Z,6.60
2022-08-03T01:06:15.370Z,7.93
2022-08-03T01:09:02.454Z,7.88
2022-08-03T01:11:34.328Z,5.80
2022-08-03T01:14:19.007Z,8.48
2022-08-03T01:17:01.240Z,10.68
2022-08-03T01:19:37.274Z,6.60
2022-08-03T01:22:22.666Z,6.85
2022-08-03T01:25:18.374Z,7.68
2022-08-03T01:28:24.089Z,8.40
2022-08-03T01:30:55.026Z,8.70
2022-08-03T01:33:29.593Z,6.57
2022-08-03T01:36:02.169Z,7.35
2022-08-03T01:38:32.051Z,5.32
2022-08-03T01:41:05.834Z,4.63
2022-08-03T01:43:58.933Z,8.25
2022-08-03T01:46:20.897Z,7.03
2022-08-03T01:48:48.877Z,7.25
2022-08-03T01:51:18.433Z,6.18
2022-08-03T01:53:46.853Z,7.93
2022-08-03T01:56:14.216Z,7.95
2022-08-03T01:58:42.205Z,7.68
2022-08-03T02:01:10.054Z,6.18
2022-08-03T02:03:59.790Z,7.95
2022-08-03T02:06:58.931Z,8.10
2022-08-03T02:09:19.935Z,11.65
2022-08-03T02:11:47.496Z,10.65
2022-08-03T02:14:15.406Z,10.68
2022-08-03T02:16:44.621Z,10.45
2022-08-03T02:19:13.121Z,7.60
2022-08-03T02:21:56.374Z,8.98
2022-08-03T02:24:28.164Z,8.63
2022-08-03T02:26:57.016Z,8.25
2022-08-03T02:29:39.315Z,10.10
2022-08-03T02:32:11.696Z,8.57
2022-08-03T02:34:40.066Z,9.82
2022-08-03T02:37:08.581Z,9.93
2022-08-03T02:39:36.706Z,8.23
2022-08-03T02:42:05.597Z,8.70
2022-08-03T02:44:34.819Z,10.63
2022-08-03T02:47:05.010Z,12.50
2022-08-03T02:52:24.001Z,6.93
2022-08-03T02:54:54.918Z,10.27
2022-08-03T02:57:23.166Z,9.20
2022-08-03T02:59:50.537Z,12.75
2022-08-03T03:02:19.752Z,9.93
2022-08-03T03:05:50.732Z,5.75
2022-08-03T03:07:50.474Z,8.43
2022-08-03T03:10:18.933Z,11.70
2022-08-03T03:12:46.752Z,11.63
2022-08-03T03:15:13.502Z,9.70
2022-08-03T03:17:43.005Z,10.93
2022-08-03T03:20:10.525Z,9.45
2022-08-03T03:22:37.961Z,12.43
2022-08-03T03:25:07.429Z,7.90
2022-08-03T03:27:34.680Z,11.45
2022-08-03T03:30:02.436Z,9.00
2022-08-03T03:32:29.783Z,9.48
2022-08-03T03:34:59.122Z,9.68
2022-08-03T03:37:27.002Z,6.77
2022-08-03T03:39:54.832Z,7.85
2022-08-03T03:42:21.849Z,6.60
2022-08-03T03:44:48.557Z,7.40
2022-08-03T03:47:15.268Z,9.43
2022-08-03T03:49:44.178Z,5.68
2022-08-03T03:52:11.404Z,9.23
2022-08-03T03:54:45.233Z,6.60
2022-08-03T03:57:12.988Z,12.88
2022-08-03T03:59:42.140Z,8.90
2022-08-03T04:02:10.051Z,10.80
2022-08-03T04:04:57.230Z,8.50
2022-08-03T04:07:44.282Z,6.60
2022-08-03T04:10:40.844Z,7.57
2022-08-03T04:13:10.638Z,12.02
2022-08-03T04:15:39.769Z,10.85
2022-08-03T04:18:09.882Z,8.50
2022-08-03T04:20:38.609Z,12.63
2022-08-03T04:23:15.482Z,7.65
2022-08-03T04:25:43.813Z,11.68
2022-08-03T04:28:31.370Z,11.90
2022-08-03T04:31:00.585Z,8.63
2022-08-03T04:33:30.802Z,11.88
2022-08-03T04:38:32.863Z,9.43
2022-08-03T04:41:01.000Z,14.02
2022-08-03T04:43:28.664Z,14.07
2022-08-03T04:45:56.808Z,10.65
2022-08-03T04:48:23.995Z,9.13
2022-08-03T04:50:50.904Z,13.13
2022-08-03T04:53:18.167Z,10.07
2022-08-03T04:55:46.477Z,15.13
2022-08-03T04:58:13.158Z,12.55
2022-08-03T05:00:39.833Z,12.52
2022-08-03T05:03:20.395Z,12.23
2022-08-03T05:05:52.444Z,13.00
2022-08-03T05:08:27.693Z,14.95
2022-08-03T05:10:55.580Z,15.35
2022-08-03T05:13:26.082Z,10.15
2022-08-03T05:15:52.806Z,15.43
2022-08-03T05:18:19.691Z,9.57
2022-08-03T05:20:46.628Z,13.45
2022-08-03T05:23:13.389Z,13.05
2022-08-03T05:25:40.156Z,10.20
2022-08-03T05:28:16.412Z,12.30
2022-08-03T05:30:43.220Z,11.70
2022-08-03T05:33:09.895Z,15.18
2022-08-03T05:35:55.962Z,12.55
2022-08-03T05:38:28.579Z,14.13
2022-08-03T05:41:21.214Z,15.02
2022-08-03T05:43:47.894Z,9.60
2022-08-03T05:46:14.828Z,14.77
2022-08-03T05:48:42.700Z,18.58
2022-08-03T05:51:11.444Z,12.85
2022-08-03T05:53:42.760Z,15.43
2022-08-03T05:56:14.330Z,15.05
2022-08-03T05:58:46.708Z,23.50
2022-08-03T06:01:13.923Z,12.55
2022-08-03T06:03:40.663Z,14.20
2022-08-03T06:06:07.415Z,12.05
2022-08-03T06:08:34.782Z,16.73
2022-08-03T06:11:01.520Z,15.98
2022-08-03T06:13:28.171Z,17.58
2022-08-03T06:15:54.906Z,17.15
2022-08-03T06:18:21.653Z,16.77
2022-08-03T06:20:49.625Z,17.23
2022-08-03T06:23:17.901Z,14.20
2022-08-03T06:25:45.480Z,15.40
2022-08-03T06:31:01.172Z,11.80
2022-08-03T06:34:30.229Z,16.00
2022-08-03T06:36:15.338Z,17.67
2022-08-03T06:38:42.086Z,11.65
2022-08-03T06:41:08.830Z,15.13
2022-08-03T06:44:03.507Z,19.45
2022-08-03T06:46:25.152Z,17.40
2022-08-03T06:48:53.247Z,16.63
2022-08-03T06:51:20.199Z,18.88
2022-08-03T06:53:46.938Z,14.23
2022-08-03T06:56:13.699Z,15.77
2022-08-03T06:58:40.586Z,12.70
2022-08-03T07:01:07.327Z,16.50
2022-08-03T07:03:34.017Z,17.48
2022-08-03T07:06:00.888Z,23.35
2022-08-03T07:08:33.876Z,14.20
2022-08-03T07:11:01.540Z,13.35
2022-08-03T07:13:28.283Z,20.75
2022-08-03T07:15:56.376Z,11.00
2022-08-03T07:18:29.104Z,16.58
2022-08-03T07:20:58.082Z,11.75
2022-08-03T07:23:25.698Z,11.98
2022-08-03T07:25:52.671Z,12.00
2022-08-03T07:28:20.315Z,16.38
2022-08-03T07:30:47.252Z,12.48
2022-08-03T07:33:15.139Z,13.63
2022-08-03T07:35:42.028Z,14.48
2022-08-03T07:38:09.201Z,15.90
2022-08-03T07:40:35.894Z,14.85
2022-08-03T07:43:03.561Z,12.27
2022-08-03T07:45:32.536Z,18.30
2022-08-03T07:47:59.443Z,21.90
2022-08-03T07:50:26.361Z,21.38
2022-08-03T07:52:54.022Z,20.95
2022-08-03T07:55:23.981Z,19.70
2022-08-03T07:58:06.034Z,19.02
2022-08-03T08:00:32.806Z,13.45
2022-08-03T08:02:59.635Z,12.23
2022-08-03T08:05:26.634Z,13.27
2022-08-03T08:07:53.578Z,17.42
2022-08-03T08:10:20.464Z,12.02
2022-08-03T08:12:48.237Z,16.30
2022-08-03T08:15:15.209Z,13.00
2022-08-03T08:17:47.468Z,12.93
2022-08-03T08:20:28.115Z,14.13
2022-08-03T08:23:01.377Z,17.55
2022-08-03T08:25:29.546Z,13.77
2022-08-03T08:28:22.362Z,16.70
2022-08-03T08:30:43.815Z,12.50
2022-08-03T08:33:22.323Z,18.02
2022-08-03T08:35:51.232Z,15.00
2022-08-03T08:38:17.987Z,19.80
2022-08-03T08:40:44.869Z,20.35
2022-08-03T08:43:11.746Z,14.32
2022-08-03T08:45:40.517Z,16.38
2022-08-03T08:48:09.174Z,16.98
2022-08-03T08:50:38.867Z,13.98
2022-08-03T08:53:15.578Z,17.88
2022-08-03T08:58:32.542Z,15.98
2022-08-03T09:00:59.359Z,15.35
2022-08-03T09:03:29.288Z,16.75
2022-08-03T09:06:01.256Z,15.98
2022-08-03T09:08:30.087Z,18.48
2022-08-03T09:10:56.895Z,15.20
2022-08-03T09:13:23.906Z,16.35
2022-08-03T09:16:21.776Z,16.50
2022-08-03T09:18:51.165Z,15.25
2022-08-03T09:21:32.067Z,17.08
2022-08-03T09:24:03.226Z,14.75
2022-08-03T09:26:33.209Z,15.75
2022-08-03T09:29:12.818Z,15.97
2022-08-03T09:31:45.210Z,18.60
2022-08-03T09:34:15.214Z,12.98
2022-08-03T09:36:47.210Z,14.57
2022-08-03T09:39:15.670Z,13.88
2022-08-03T09:41:44.879Z,17.83
2022-08-03T09:44:24.596Z,15.27
2022-08-03T09:46:54.875Z,14.20
2022-08-03T09:49:22.206Z,15.23
2022-08-03T09:52:32.222Z,13.18
2022-08-03T09:54:35.805Z,13.20
2022-08-03T09:57:02.893Z,13.48
2022-08-03T09:59:32.061Z,19.50
2022-08-03T10:02:00.665Z,18.63
2022-08-03T10:04:27.503Z,17.55
2022-08-03T10:07:07.331Z,12.93
2022-08-03T10:09:34.123Z,19.65
2022-08-03T10:12:12.253Z,11.25
2022-08-03T10:14:40.451Z,14.98
2022-08-03T10:17:07.375Z,22.15
2022-08-03T10:19:34.267Z,15.05
2022-08-03T10:22:22.340Z,14.82
2022-08-03T10:24:49.140Z,12.60
2022-08-03T10:27:19.214Z,22.00
2022-08-03T10:29:51.529Z,12.80
2022-08-03T10:32:31.783Z,15.75
2022-08-03T10:35:19.601Z,15.52
2022-08-03T10:37:56.544Z,17.63
2022-08-03T10:40:47.626Z,14.82
2022-08-03T10:43:19.733Z,15.80
2022-08-03T10:45:47.008Z,13.80
2022-08-03T10:48:14.680Z,13.30
2022-08-03T10:50:43.364Z,9.48
2022-08-03T10:53:10.336Z,13.07
2022-08-03T10:56:05.554Z,10.93
2022-08-03T10:58:53.445Z,15.30
2022-08-03T11:01:58.498Z,19.50
2022-08-03T11:04:29.251Z,11.02
2022-08-03T11:07:18.275Z,15.73
2022-08-03T11:09:49.901Z,12.70
2022-08-03T11:12:32.146Z,10.55
2022-08-03T11:15:07.449Z,15.65
2022-08-03T11:17:45.935Z,10.18
2022-08-03T11:20:52.154Z,16.77
2022-08-03T11:24:02.535Z,13.98
2022-08-03T11:26:27.555Z,13.70
2022-08-03T11:29:14.275Z,17.52
2022-08-03T11:31:50.622Z,12.10
2022-08-03T11:34:18.335Z,9.60
2022-08-03T11:37:24.503Z,12.00
2022-08-03T11:39:54.635Z,12.27
2022-08-03T11:42:24.932Z,14.57
2022-08-03T11:44:59.089Z,12.10
2022-08-03T11:47:28.740Z,10.40
2022-08-03T11:50:02.106Z,13.90
2022-08-03T11:52:36.261Z,14.50
2022-08-03T11:55:08.251Z,12.50
2022-08-03T11:59:12.972Z,14.90
2022-08-03T12:00:24.307Z,14.57
2022-08-03T12:02:57.790Z,14.90
2022-08-03T12:05:42.422Z,13.35
2022-08-03T12:08:39.959Z,13.65
2022-08-03T12:11:08.845Z,14.18
2022-08-03T12:14:45.023Z,13.50
2022-08-03T12:16:33.866Z,11.48
2022-08-03T12:19:06.529Z,10.07
2022-08-03T12:21:33.269Z,7.97
2022-08-03T12:24:02.006Z,9.57
2022-08-03T12:26:30.719Z,12.05
2022-08-03T12:28:58.283Z,11.40
2022-08-03T12:31:25.286Z,8.07
2022-08-03T12:34:02.663Z,9.25
2022-08-03T12:36:32.919Z,11.85
2022-08-03T12:39:05.916Z,12.57
2022-08-03T12:41:38.297Z,10.45
2022-08-03T12:44:07.091Z,7.75
2022-08-03T12:46:37.867Z,8.10
2022-08-03T12:49:17.035Z,8.40
2022-08-03T12:51:43.779Z,9.75
2022-08-03T12:54:18.171Z,7.40
2022-08-03T12:57:02.043Z,7.90
2022-08-03T12:59:34.731Z,10.55
2022-08-03T13:02:04.687Z,8.52
2022-08-03T13:04:36.710Z,8.18
2022-08-03T13:07:06.586Z,8.15
2022-08-03T13:09:49.296Z,4.95
2022-08-03T13:12:18.537Z,7.28
2022-08-03T13:14:48.919Z,10.70
2022-08-03T13:17:18.929Z,8.23
2022-08-03T13:19:46.784Z,8.07
2022-08-03T13:22:22.182Z,9.75
2022-08-03T13:24:55.810Z,10.70
2022-08-03T13:28:03.803Z,7.22
2022-08-03T13:30:10.871Z,9.90
2022-08-03T13:32:37.525Z,8.15
2022-08-03T13:35:04.789Z,7.78
2022-08-03T13:37:32.543Z,7.25
2022-08-03T13:40:02.994Z,7.07
2022-08-03T13:42:32.265Z,8.05
2022-08-03T13:44:59.780Z,6.13
2022-08-03T13:47:27.433Z,11.20
2022-08-03T13:50:01.119Z,11.90
2022-08-03T13:52:36.346Z,9.88
2022-08-03T13:55:06.069Z,7.07
2022-08-03T13:58:11.928Z,10.15
2022-08-03T14:00:27.006Z,9.27
2022-08-03T14:03:02.727Z,7.28
2022-08-03T14:05:32.536Z,7.18
2022-08-03T14:08:04.933Z,9.05
2022-08-03T14:10:36.535Z,8.13
2022-08-03T14:13:04.614Z,8.13
2022-08-03T14:15:31.639Z,8.32
2022-08-03T14:17:59.082Z,7.15
2022-08-03T14:20:37.386Z,10.13
2022-08-03T14:23:06.955Z,7.78
2022-08-03T14:25:43.076Z,5.00
2022-08-03T14:28:18.403Z,7.13
2022-08-03T14:30:45.562Z,12.85
2022-08-03T14:33:12.247Z,7.10
2022-08-03T14:35:38.912Z,7.22
2022-08-03T14:38:05.724Z,5.43
2022-08-03T14:40:32.516Z,7.15
2022-08-03T14:42:59.310Z,6.22
2022-08-03T14:45:26.010Z,7.28
2022-08-03T14:50:33.340Z,11.20
2022-08-03T14:50:44.387Z,14.10
2022-08-03T14:53:14.009Z,7.22
2022-08-03T14:55:50.344Z,8.23
2022-08-03T14:58:22.542Z,8.20
2022-08-03T15:00:50.811Z,4.57
2022-08-03T15:03:21.450Z,7.43
2022-08-03T15:05:48.533Z,6.00
2022-08-03T15:08:15.506Z,6.30
2022-08-03T15:10:45.212Z,6.10
2022-08-03T15:13:16.869Z,7.13
2022-08-03T15:15:43.833Z,5.70
2022-08-03T15:18:11.118Z,7.40
2022-08-03T15:20:46.630Z,11.27
2022-08-03T15:23:15.191Z,5.45
2022-08-03T15:26:27.884Z,4.75
2022-08-03T15:28:30.541Z,6.63
2022-08-03T15:30:57.298Z,12.68
2022-08-03T15:33:24.257Z,5.82
2022-08-03T15:35:51.004Z,6.45
2022-08-03T15:38:17.968Z,11.10
2022-08-03T15:40:44.931Z,4.95
2022-08-03T15:43:11.667Z,8.63
2022-08-03T15:45:38.424Z,11.00
2022-08-03T15:48:05.907Z,10.13
2022-08-03T15:50:32.787Z,8.75
2022-08-03T15:52:59.488Z,6.05
2022-08-03T15:55:26.641Z,6.32
2022-08-03T15:59:10.686Z,7.38
2022-08-03T16:00:41.288Z,5.22
2022-08-03T16:03:08.153Z,7.75
2022-08-03T16:05:35.650Z,8.05
2022-08-03T16:08:04.336Z,8.27
2022-08-03T16:10:32.145Z,7.20
2022-08-03T16:12:59.914Z,5.50
2022-08-03T16:15:26.949Z,8.15
2022-08-03T16:17:53.718Z,6.72
2022-08-03T16:20:30.998Z,8.00
2022-08-03T16:23:10.738Z,11.75
2022-08-03T16:25:39.809Z,6.32
2022-08-03T16:28:13.540Z,7.95
2022-08-03T16:30:42.144Z,7.50
2022-08-03T16:33:09.337Z,7.05
2022-08-03T16:35:36.214Z,8.90
2022-08-03T16:38:09.257Z,11.77
2022-08-03T16:40:37.148Z,6.55
2022-08-03T16:43:18.213Z,5.70
2022-08-03T16:45:45.543Z,7.25
2022-08-03T16:48:12.234Z,6.18
2022-08-03T16:50:39.662Z,5.60
2022-08-03T16:53:09.021Z,6.20
2022-08-03T16:55:51.629Z,8.23
2022-08-03T16:58:22.056Z,9.57
2022-08-03T17:01:01.760Z,12.07
2022-08-03T17:04:02.978Z,6.63
2022-08-03T17:06:35.858Z,7.63
2022-08-03T17:09:23.126Z,9.13
2022-08-03T17:11:50.987Z,5.20
2022-08-03T17:14:22.887Z,6.72
2022-08-03T17:16:59.536Z,9.07
2022-08-03T17:19:31.413Z,8.07
2022-08-03T17:22:10.636Z,6.70
2022-08-03T17:24:41.533Z,10.02
2022-08-03T17:28:41.551Z,6.00
2022-08-03T17:30:11.914Z,13.73
2022-08-03T17:32:42.373Z,7.45
2022-08-03T17:35:10.793Z,7.35
2022-08-03T17:37:58.473Z,11.50
2022-08-03T17:40:24.652Z,10.70
2022-08-03T17:42:52.422Z,6.38
2022-08-03T17:45:20.341Z,3.72
2022-08-03T17:47:57.072Z,6.60
2022-08-03T17:50:33.832Z,5.50
2022-08-03T17:53:15.554Z,9.13
2022-08-03T17:56:42.649Z,6.60
2022-08-03T17:59:51.456Z,10.02
2022-08-03T18:02:50.274Z,6.22
2022-08-03T18:05:21.914Z,8.27
2022-08-03T18:07:59.472Z,6.15
2022-08-03T18:13:10.449Z,8.70
2022-08-03T18:15:43.277Z,10.77
2022-08-03T18:18:14.470Z,5.70
2022-08-03T18:20:45.690Z,6.53
2022-08-03T18:23:25.494Z,8.50
2022-08-03T18:26:07.357Z,7.45
2022-08-03T18:28:38.524Z,9.43
2022-08-03T18:31:07.125Z,6.22
2022-08-03T18:34:19.661Z,7.77
2022-08-03T18:36:30.149Z,6.38
2022-08-03T18:38:59.343Z,7.82
2022-08-03T18:41:32.364Z,7.47
2022-08-03T18:44:08.348Z,5.95
2022-08-03T18:47:16.698Z,7.90
2022-08-03T18:50:09.761Z,6.63
2022-08-03T18:52:53.093Z,3.92
2022-08-03T18:55:32.987Z,4.97
2022-08-03T18:58:18.049Z,8.90
2022-08-03T19:00:57.634Z,4.32
2022-08-03T19:03:41.559Z,5.20
2022-08-03T19:06:19.148Z,4.40
2022-08-03T19:08:54.266Z,4.00
2022-08-03T19:11:29.761Z,6.45
2022-08-03T19:14:22.262Z,6.68
2022-08-03T19:17:07.191Z,7.05
2022-08-03T19:22:22.961Z,8.50
2022-08-03T19:24:52.824Z,6.50
2022-08-03T19:27:27.023Z,4.20
2022-08-03T19:29:58.924Z,7.18
2022-08-03T19:32:29.513Z,6.05
2022-08-03T19:34:57.885Z,5.57
2022-08-03T19:37:38.639Z,10.45
2022-08-03T19:40:10.258Z,8.68
2022-08-03T19:42:44.315Z,6.63
2022-08-03T19:45:15.496Z,5.97
2022-08-03T19:47:52.423Z,6.95
2022-08-03T19:50:20.543Z,5.35
2022-08-03T19:52:49.568Z,4.55
2022-08-03T19:55:17.716Z,5.55
2022-08-03T19:57:49.291Z,3.78
2022-08-03T20:00:19.902Z,9.77
2022-08-03T20:02:53.099Z,5.63
2022-08-03T20:05:19.969Z,7.20
2022-08-03T20:10:34.232Z,4.47
2022-08-03T20:13:01.707Z,5.88
2022-08-03T20:15:31.853Z,5.50
2022-08-03T20:17:59.407Z,6.60
2022-08-03T20:20:47.985Z,7.68
2022-08-03T20:23:18.377Z,4.93
2022-08-03T20:25:58.563Z,6.22
2022-08-03T20:28:49.628Z,6.93
2022-08-03T20:31:18.814Z,4.65
2022-08-03T20:33:48.596Z,4.88
2022-08-03T20:36:17.789Z,4.10
2022-08-03T20:38:47.080Z,5.53
2022-08-03T20:41:14.818Z,5.03
2022-08-03T20:43:41.843Z,7.47
2022-08-03T20:46:29.004Z,5.57
2022-08-03T20:48:57.236Z,7.03
2022-08-03T20:51:49.114Z,5.80
2022-08-03T20:54:22.885Z,8.85
2022-08-03T20:56:58.172Z,8.75
2022-08-03T20:59:34.832Z,6.57
2022-08-03T21:02:19.987Z,4.77
2022-08-03T21:04:57.969Z,6.15
2022-08-03T21:07:45.484Z,6.03
2022-08-03T21:10:15.502Z,5.40
2022-08-03T21:13:03.562Z,5.28
2022-08-03T21:13:15.378Z,7.70
2022-08-03T21:16:06.099Z,6.60
2022-08-03T21:18:42.573Z,5.63
2022-08-03T21:21:10.650Z,4.93
2022-08-03T21:23:47.619Z,6.25
2022-08-03T21:26:23.417Z,6.97
2022-08-03T21:28:52.370Z,8.55
2022-08-03T21:31:25.098Z,7.40
2022-08-03T21:34:05.230Z,7.03
2022-08-03T21:36:36.712Z,7.75
2022-08-03T21:39:07.278Z,4.88
2022-08-03T21:41:34.628Z,6.38
2022-08-03T21:44:02.130Z,7.60
2022-08-03T21:46:35.047Z,7.32
2022-08-03T21:49:51.773Z,5.60
2022-08-03T21:51:54.013Z,6.95
2022-08-03T21:54:22.603Z,5.03
2022-08-03T21:56:54.338Z,6.05
2022-08-03T21:59:23.336Z,9.23
2022-08-03T22:01:55.229Z,5.03
2022-08-03T22:04:50.767Z,6.25
2022-08-03T22:07:12.911Z,5.95
2022-08-03T22:09:40.248Z,8.25
2022-08-03T22:12:24.916Z,6.00
2022-08-03T22:14:53.599Z,5.20
2022-08-03T22:17:55.517Z,5.00
2022-08-03T22:20:16.779Z,4.03
2022-08-03T22:22:54.982Z,5.82
2022-08-03T22:25:29.049Z,5.30
2022-08-03T22:27:57.998Z,6.32
2022-08-03T22:30:24.943Z,6.90
2022-08-03T22:32:54.606Z,7.93
2022-08-03T22:35:23.835Z,6.25
2022-08-03T22:37:53.774Z,4.17
2022-08-03T22:40:20.569Z,5.07
2022-08-03T22:42:51.970Z,5.32
2022-08-03T22:46:09.319Z,5.80
2022-08-03T22:48:08.062Z,5.57
2022-08-03T22:50:35.515Z,4.28
2022-08-03T22:53:02.640Z,9.52
2022-08-03T22:55:31.441Z,6.45
2022-08-03T22:57:58.174Z,5.75
2022-08-03T23:00:25.251Z,5.85
2022-08-03T23:02:54.451Z,5.40
2022-08-03T23:06:01.866Z,4.60
2022-08-03T23:08:14.378Z,6.10
2022-08-03T23:10:46.707Z,6.47
2022-08-03T23:13:16.943Z,6.85
2022-08-03T23:15:49.536Z,4.45
2022-08-03T23:18:17.565Z,6.50
2022-08-03T23:20:44.703Z,5.60
2022-08-03T23:23:12.453Z,5.90
2022-08-03T23:25:41.523Z,6.07
2022-08-03T23:28:09.242Z,5.80
2022-08-03T23:30:38.007Z,4.63
2022-08-03T23:33:05.897Z,7.43
2022-08-03T23:36:17.342Z,6.38
2022-08-03T23:38:37.746Z,6.13
2022-08-03T23:41:05.205Z,5.53
2022-08-03T23:43:51.280Z,5.50
2022-08-03T23:46:20.987Z,6.50
2022-08-03T23:48:47.673Z,10.32
2022-08-03T23:51:27.568Z,6.68
2022-08-03T23:54:09.920Z,5.60
2022-08-03T23:56:53.925Z,7.32
2022-08-03T23:59:38.099Z,6.05
